Puumala, Suomi

21. syyskuuta 2018 klo 11:52 (EEST) (GMT +0300)
RIVERIA Nurmeksen koulutusyksikkö | | Change Station

Kork 300 ft 63.55 °N, 29.14 °E | Updated 6 minutes ago

Pilvistä
Pilvistä
57.5 °F
Tuntuu kuin 57.5 °F
N
6
Tuuli Suunnaltaan vaihteleva Tuuli ilmansuunnasta Lännen ja lounaan välinen
Gusts 14.0 mph

Tänään
Korkea -- | Matala -- °F
--% Sateen mahd.
Eilen
Korkea -- | Matala -- °F
Precip. -- tuumaa
Ilmanpaine 29.71 tuumaa
Näkyvyys 6.2 mailia
Pilviä Harvoja pilviä 2500 ft
Pilvistä 14400 ft
Kastepiste 47 °F
Ilmankosteus 68%
Sademäärä 0.00 tuumaa
Lumensyvyys Ei saatavilla
6:46 AM 7:11 PM
Kasvava kupera kuu, 87% visible
METAR EFKU 210750Z 20013KT 9999 FEW025 BKN144 12/08 Q1006
Ilmanpaine 29.71 tuumaa
Näkyvyys 6.2 mailia
Pilviä Harvoja pilviä 2500 ft
Pilvistä 14400 ft
Kastepiste 47 °F
Ilmankosteus 68%
Sademäärä 0.00 tuumaa
Lumensyvyys Ei saatavilla
6:46 AM 7:11 PM
Kasvava kupera kuu, 87% visible
METAR EFKU 210750Z 20013KT 9999 FEW025 BKN144 12/08 Q1006

Get Severe Weather Alerts

Thanks for signing up!

Be on the lookout for a verification email in your inbox.

You'll start receiving the daily forecast at 6 AM.

×

10-Day Weather Forecast

×

Almanac

Tähtitiede

Sep. 21, 2018 Nousuaika Laskuaika
Valoisa aika
Porvarillinen hämärä
Nauttinen hämärä
Astronominen hämärä
Kuu
Näkyvän valon pituus
Päivän pituus
Tomorrow will be .
, % of the Moon is Illuminated

Tämän päivän ennätykset

Country Highs Country Lows

Community

WunderPhotos

Category 6

Welcome to Category 6. This is the collective home for Weather Underground's featured writeups by Dr. Jeff Masters (right), Bob Henson (left), Chris Burt, and other regular contributors.

Nearby

Ilmanlaatu

  Ilmanlaatu AQ Index Pollutant
Not available.

Lumensyvyys

Station Depth Korkeus

Maanjäristysaktiivisuus

Paikkakunta Distance Mag. Time & Date
Minimum magnitude displayed is 2.5.

Coastal Water Temperatures

Paikka Lämpötila

Stations

Lähimmät sääasemat

Aseman sijainti Lämpötila Tuulen hyytävyys Kastepiste Ilmankosteus Tuuli Precip. Kork Päivitetty Tyyppi